Time;durP1;ratioP1;P1;durP2;ratioP2;P2;SDS_P1;SDS_P2;PMS_P1;PMS_P2;Temp;Humidity;BMP_temperature;BMP_pressure;BME280_temperature;BME280_humidity;BME280_pressure;Samples;Min_cycle;Max_cycle;Signal;HPM_P1;HPM_P2
2023/07/02 00:00:05;;;;;;;;;35.67;26.33;;;;;-143.57;100.00;65101.44;5015455;28;45392;-42
2023/07/02 00:02:30;;;;;;;;;40.00;31.00;;;;;-143.57;100.00;65101.44;5015785;28;45362;-42
2023/07/02 00:04:55;;;;;;;;;39.33;28.33;;;;;-143.57;100.00;65101.44;5015303;28;45371;-43
2023/07/02 00:07:21;;;;;;;;;45.33;34.33;;;;;-143.57;100.00;65101.44;5015274;28;45354;-43
2023/07/02 00:09:46;;;;;;;;;38.67;31.33;;;;;-143.57;100.00;65101.44;5015626;28;45590;-41
2023/07/02 00:12:11;;;;;;;;;32.00;26.67;;;;;-143.57;100.00;65101.44;5015602;28;45454;-42
2023/07/02 00:14:37;;;;;;;;;40.67;30.33;;;;;-143.57;100.00;65101.44;5015390;28;46156;-46
2023/07/02 00:17:03;;;;;;;;;43.00;30.67;;;;;-143.57;100.00;65101.44;5015336;28;45405;-45
2023/07/02 00:19:29;;;;;;;;;35.00;28.50;;;;;-143.57;100.00;65101.44;4997757;28;45468;-44
2023/07/02 00:21:55;;;;;;;;;39.33;29.67;;;;;-143.57;100.00;65101.44;5015574;28;45504;-43
2023/07/02 00:24:20;;;;;;;;;45.00;32.67;;;;;-143.57;100.00;65101.44;5015268;28;46021;-43
2023/07/02 00:26:46;;;;;;;;;35.33;27.33;;;;;-143.57;100.00;65101.44;5015227;28;45471;-44
2023/07/02 00:29:11;;;;;;;;;42.33;34.67;;;;;-143.57;100.00;65101.44;5015499;28;45348;-43
2023/07/02 00:31:36;;;;;;;;;42.67;31.33;;;;;-143.57;100.00;65101.44;5015635;28;45421;-42
2023/07/02 00:34:02;;;;;;;;;46.00;28.67;;;;;-143.57;100.00;65101.44;5015083;28;46142;-42
2023/07/02 00:36:29;;;;;;;;;38.00;30.00;;;;;-143.57;100.00;65101.44;5017788;28;45625;-41
2023/07/02 00:38:55;;;;;;;;;32.67;28.33;;;;;-143.57;100.00;65101.44;5019080;28;45402;-43
2023/07/02 00:41:22;;;;;;;;;38.33;29.33;;;;;-143.57;100.00;65101.44;5018511;28;45537;-41
2023/07/02 00:43:48;;;;;;;;;40.00;32.67;;;;;-143.57;100.00;65101.44;5018315;28;46161;-40
2023/07/02 00:46:17;;;;;;;;;38.33;31.00;;;;;-143.57;100.00;65101.44;5018693;28;45446;-41
2023/07/02 00:48:45;;;;;;;;;46.33;30.00;;;;;-143.57;100.00;65101.44;5018723;28;45482;-46
2023/07/02 00:51:17;;;;;;;;;37.67;29.00;;;;;-143.57;100.00;65101.44;5001405;28;45287;-42
2023/07/02 00:53:46;;;;;;;;;38.67;30.67;;;;;-143.57;100.00;65101.44;5018326;28;46141;-42
2023/07/02 00:56:12;;;;;;;;;44.67;29.33;;;;;-143.57;100.00;65101.44;5018335;28;45311;-41
2023/07/02 00:58:40;;;;;;;;;35.67;26.33;;;;;-143.57;100.00;65101.44;5018421;28;45378;-41
2023/07/02 01:01:05;;;;;;;;;39.67;27.67;;;;;-143.57;100.00;65101.44;5018773;28;45435;-47
2023/07/02 01:03:32;;;;;;;;;39.67;32.67;;;;;-143.57;100.00;65101.44;5018553;28;46136;-43
2023/07/02 01:05:58;;;;;;;;;35.67;31.00;;;;;-143.57;100.00;65101.44;5018326;28;45156;-50
2023/07/02 01:08:24;;;;;;;;;39.33;31.33;;;;;-143.57;100.00;65101.44;5018399;28;45232;-47
2023/07/02 01:10:49;;;;;;;;;42.00;28.00;;;;;-143.57;100.00;65101.44;5018219;28;45335;-45
2023/07/02 01:13:19;;;;;;;;;38.33;32.00;;;;;-143.57;100.00;65101.44;5000609;28;46727;-41
2023/07/02 01:15:45;;;;;;;;;40.00;25.00;;;;;-143.57;100.00;65101.44;5000237;28;45422;-45
2023/07/02 01:18:13;;;;;;;;;40.00;27.00;;;;;-143.57;100.00;65101.44;5016576;28;45428;-42
2023/07/02 01:20:39;;;;;;;;;31.67;27.00;;;;;-143.57;100.00;65101.44;5017653;28;45625;-41
2023/07/02 01:23:05;;;;;;;;;41.67;31.67;;;;;-143.57;100.00;65101.44;5017679;28;46152;-41
2023/07/02 01:25:30;;;;;;;;;41.67;29.67;;;;;-143.57;100.00;65101.44;5018378;28;45320;-41
2023/07/02 01:27:58;;;;;;;;;35.33;28.00;;;;;-143.57;100.00;65101.44;5018115;28;45419;-53
2023/07/02 01:30:24;;;;;;;;;39.67;32.00;;;;;-143.57;100.00;65101.44;5018408;28;45374;-43
2023/07/02 01:32:49;;;;;;;;;41.67;29.00;;;;;-143.57;100.00;65101.44;5017988;28;46823;-41
2023/07/02 01:35:16;;;;;;;;;44.33;30.33;;;;;-143.57;100.00;65101.44;5018094;28;45367;-45
2023/07/02 01:37:41;;;;;;;;;34.67;31.00;;;;;-143.57;100.00;65101.44;5017287;28;45312;-43
2023/07/02 01:40:10;;;;;;;;;42.33;32.00;;;;;-143.57;100.00;65101.44;5018246;28;45425;-52
2023/07/02 01:42:36;;;;;;;;;41.67;29.33;;;;;-143.57;100.00;65101.44;5017889;28;46133;-42
2023/07/02 01:45:01;;;;;;;;;30.67;26.00;;;;;-143.57;100.00;65101.44;5017495;28;45428;-51
2023/07/02 01:47:27;;;;;;;;;40.00;29.00;;;;;-143.57;100.00;65101.44;5016657;28;45510;-41
2023/07/02 01:49:52;;;;;;;;;33.33;26.33;;;;;-143.57;100.00;65101.44;5018404;28;45334;-48
2023/07/02 01:52:17;;;;;;;;;39.67;32.33;;;;;-143.57;100.00;65101.44;5017676;28;47054;-46
2023/07/02 01:54:46;;;;;;;;;26.00;25.33;;;;;-143.57;100.00;65101.44;5017522;28;45267;-43
2023/07/02 01:57:11;;;;;;;;;32.00;28.00;;;;;-143.57;100.00;65101.44;5017580;28;45271;-41
2023/07/02 01:59:36;;;;;;;;;34.33;30.33;;;;;-143.57;100.00;65101.44;5017228;28;45270;-43
2023/07/02 02:02:02;;;;;;;;;39.67;30.00;;;;;-143.57;100.00;65101.44;5017477;28;45391;-45
2023/07/02 02:04:27;;;;;;;;;37.00;27.67;;;;;-143.57;100.00;65101.44;5017614;28;45410;-43
2023/07/02 02:06:53;;;;;;;;;30.67;27.00;;;;;-143.57;100.00;65101.44;5017287;28;45775;-48
2023/07/02 02:09:18;;;;;;;;;35.33;27.33;;;;;-143.57;100.00;65101.44;5015915;28;45463;-41
2023/07/02 02:11:49;;;;;;;;;40.67;30.67;;;;;-143.57;100.00;65101.44;5017154;28;46969;-49
2023/07/02 02:14:16;;;;;;;;;37.00;28.67;;;;;-143.57;100.00;65101.44;5017104;28;45377;-42
2023/07/02 02:16:41;;;;;;;;;43.00;30.33;;;;;-143.57;100.00;65101.44;5017052;28;45450;-46
2023/07/02 02:19:07;;;;;;;;;39.00;30.00;;;;;-143.57;100.00;65101.44;5017452;28;45316;-42
2023/07/02 02:21:32;;;;;;;;;23.00;21.00;;;;;-143.57;100.00;65101.44;5017025;28;45377;-44
2023/07/02 02:23:58;;;;;;;;;40.67;32.00;;;;;-143.57;100.00;65101.44;5016874;28;45308;-41
2023/07/02 02:26:25;;;;;;;;;32.33;24.33;;;;;-143.57;100.00;65101.44;5017093;28;45462;-44
2023/07/02 02:28:50;;;;;;;;;39.33;29.33;;;;;-143.57;100.00;65101.44;5016723;28;45577;-44
2023/07/02 02:31:16;;;;;;;;;32.00;23.67;;;;;-143.57;100.00;65101.44;5016670;28;45318;-42
2023/07/02 02:33:41;;;;;;;;;34.67;26.00;;;;;-143.57;100.00;65101.44;5017110;28;45353;-45
2023/07/02 02:36:07;;;;;;;;;33.00;27.50;;;;;-143.57;100.00;65101.44;5016954;28;45318;-46
2023/07/02 02:38:33;;;;;;;;;31.33;24.67;;;;;-143.57;100.00;65101.44;5017203;28;45414;-41
2023/07/02 02:40:59;;;;;;;;;38.67;29.67;;;;;-143.57;100.00;65101.44;5016740;28;46180;-40
2023/07/02 02:43:24;;;;;;;;;36.33;30.33;;;;;-143.57;100.00;65101.44;5016543;28;45493;-41
2023/07/02 02:45:50;;;;;;;;;38.33;31.00;;;;;-143.57;100.00;65101.44;5017058;28;45373;-43
2023/07/02 02:48:15;;;;;;;;;31.67;25.33;;;;;-143.57;100.00;65101.44;5016585;28;45415;-41
2023/07/02 02:50:42;;;;;;;;;31.33;23.67;;;;;-143.57;100.00;65101.44;5016849;28;45484;-42
2023/07/02 02:53:08;;;;;;;;;33.00;30.00;;;;;-143.57;100.00;65101.44;5016524;28;45218;-43
2023/07/02 02:55:34;;;;;;;;;36.67;29.33;;;;;-143.57;100.00;65101.44;5016531;28;45569;-41
2023/07/02 02:57:59;;;;;;;;;40.67;26.33;;;;;-143.57;100.00;65101.44;5016387;28;45514;-40
2023/07/02 03:00:24;;;;;;;;;32.67;25.33;;;;;-143.57;100.00;65101.44;5016313;28;47235;-48
2023/07/02 03:02:50;;;;;;;;;31.33;26.33;;;;;-143.57;100.00;65101.44;5016532;28;45217;-41
2023/07/02 03:05:16;;;;;;;;;47.67;31.67;;;;;-143.57;100.00;65101.44;5016608;28;45409;-43
2023/07/02 03:07:42;;;;;;;;;38.67;27.00;;;;;-143.57;100.00;65101.44;5016733;28;45322;-42
2023/07/02 03:10:07;;;;;;;;;32.00;28.33;;;;;-143.57;100.00;65101.44;5016396;28;46161;-41
2023/07/02 03:12:33;;;;;;;;;29.33;26.67;;;;;-143.57;100.00;65101.44;5016068;28;45386;-47
2023/07/02 03:14:58;;;;;;;;;30.00;25.33;;;;;-143.57;100.00;65101.44;5016389;28;45319;-43
2023/07/02 03:17:24;;;;;;;;;33.00;28.67;;;;;-143.57;100.00;65101.44;5016582;28;45398;-50
2023/07/02 03:19:49;;;;;;;;;42.00;26.33;;;;;-143.57;100.00;65101.44;5016240;28;46000;-44
2023/07/02 03:22:15;;;;;;;;;34.33;23.67;;;;;-143.57;100.00;65101.44;5016395;28;45532;-44
2023/07/02 03:24:40;;;;;;;;;30.67;25.00;;;;;-143.57;100.00;65101.44;5016416;28;45346;-44
2023/07/02 03:27:06;;;;;;;;;31.33;23.33;;;;;-143.57;100.00;65101.44;5016167;28;45565;-43
2023/07/02 03:29:37;;;;;;;;;31.67;27.33;;;;;-143.57;100.00;65101.44;5015973;28;47103;-44
2023/07/02 03:32:03;;;;;;;;;34.33;27.67;;;;;-143.57;100.00;65101.44;5016023;28;45335;-41
2023/07/02 03:34:29;;;;;;;;;35.67;22.67;;;;;-143.57;100.00;65101.44;5016093;28;45501;-43
2023/07/02 03:36:54;;;;;;;;;28.33;23.33;;;;;-143.57;100.00;65101.44;5016287;28;45518;-46
2023/07/02 03:39:19;;;;;;;;;26.67;22.33;;;;;-143.57;100.00;65101.44;5015657;28;50031;-46
2023/07/02 03:41:45;;;;;;;;;31.33;23.67;;;;;-143.57;100.00;65101.44;5016063;28;45450;-44
2023/07/02 03:44:10;;;;;;;;;27.33;22.00;;;;;-143.57;100.00;65101.44;5016100;28;45319;-40
2023/07/02 03:46:36;;;;;;;;;32.00;22.33;;;;;-143.57;100.00;65101.44;5016111;28;45332;-41
2023/07/02 03:49:03;;;;;;;;;30.67;24.67;;;;;-143.57;100.00;65101.44;5015814;28;47548;-40
2023/07/02 03:51:29;;;;;;;;;29.33;25.67;;;;;-143.57;100.00;65101.44;5015673;28;45313;-41
2023/07/02 03:53:54;;;;;;;;;36.67;26.00;;;;;-143.57;100.00;65101.44;5015920;28;45425;-46
2023/07/02 03:56:20;;;;;;;;;31.67;24.00;;;;;-143.57;100.00;65101.44;5015909;28;45393;-42
2023/07/02 03:58:45;;;;;;;;;33.67;21.67;;;;;-143.57;100.00;65101.44;4997638;28;47188;-42
2023/07/02 04:01:10;;;;;;;;;26.33;22.33;;;;;-143.57;100.00;65101.44;5015891;28;45476;-41
2023/07/02 04:03:36;;;;;;;;;33.33;26.67;;;;;-143.57;100.00;65101.44;4997882;28;45256;-44
2023/07/02 04:06:01;;;;;;;;;34.33;25.67;;;;;-143.57;100.00;65101.44;5016118;28;45378;-41
2023/07/02 04:08:28;;;;;;;;;29.33;23.00;;;;;-143.57;100.00;65101.44;4997428;28;46048;-41
2023/07/02 04:10:53;;;;;;;;;30.00;23.67;;;;;-143.57;100.00;65101.44;5017247;28;45771;-41
2023/07/02 04:13:19;;;;;;;;;37.00;26.00;;;;;-143.57;100.00;65101.44;5019169;28;45467;-46
2023/07/02 04:15:44;;;;;;;;;30.33;22.67;;;;;-143.57;100.00;65101.44;5019343;28;45562;-43
2023/07/02 04:18:10;;;;;;;;;36.67;26.67;;;;;-143.57;100.00;65101.44;5018906;28;46081;-40
2023/07/02 04:20:38;;;;;;;;;31.00;25.67;;;;;-143.57;100.00;65101.44;5018920;28;45343;-40
2023/07/02 04:23:04;;;;;;;;;26.00;20.33;;;;;-143.57;100.00;65101.44;5019176;28;45386;-41
2023/07/02 04:25:29;;;;;;;;;35.00;24.67;;;;;-143.57;100.00;65101.44;5019181;28;45417;-40
2023/07/02 04:27:56;;;;;;;;;40.33;28.33;;;;;-143.57;100.00;65101.44;5018608;28;45926;-40
2023/07/02 04:30:21;;;;;;;;;36.00;23.00;;;;;-143.57;100.00;65101.44;5018869;28;45616;-41
2023/07/02 04:32:47;;;;;;;;;29.33;20.67;;;;;-143.57;100.00;65101.44;5017723;28;45377;-41
2023/07/02 04:35:12;;;;;;;;;28.33;23.33;;;;;-143.57;100.00;65101.44;5019118;28;45419;-41
2023/07/02 04:37:37;;;;;;;;;27.33;25.00;;;;;-143.57;100.00;65101.44;5018833;28;45458;-41
2023/07/02 04:40:10;;;;;;;;;31.33;25.67;;;;;-143.57;100.00;65101.44;5000871;28;45908;-41
2023/07/02 04:42:39;;;;;;;;;28.33;21.33;;;;;-143.57;100.00;65101.44;5019064;28;45332;-38
2023/07/02 04:45:06;;;;;;;;;26.67;17.67;;;;;-143.57;100.00;65101.44;5019490;28;46009;-41
2023/07/02 04:47:32;;;;;;;;;34.00;22.67;;;;;-143.57;100.00;65101.44;5016904;28;46122;-40
2023/07/02 04:49:58;;;;;;;;;34.33;23.67;;;;;-143.57;100.00;65101.44;5018488;28;45363;-41
2023/07/02 04:52:24;;;;;;;;;32.00;21.67;;;;;-143.57;100.00;65101.44;5018595;28;45740;-40
2023/07/02 04:54:49;;;;;;;;;26.00;23.00;;;;;-143.57;100.00;65101.44;5018590;28;45525;-41
2023/07/02 04:57:15;;;;;;;;;29.00;21.33;;;;;-143.57;100.00;65101.44;5018553;28;50170;-41
2023/07/02 04:59:42;;;;;;;;;37.00;23.00;;;;;-143.57;100.00;65101.44;5017810;28;45387;-43
2023/07/02 05:02:07;;;;;;;;;32.00;22.33;;;;;-143.57;100.00;65101.44;5018679;28;45367;-43
2023/07/02 05:04:32;;;;;;;;;31.67;22.33;;;;;-143.57;100.00;65101.44;5018532;28;45307;-42
2023/07/02 05:06:59;;;;;;;;;24.67;18.00;;;;;-143.57;100.00;65101.44;5018097;28;45548;-41
2023/07/02 05:09:25;;;;;;;;;32.67;25.00;;;;;-143.57;100.00;65101.44;5018368;28;45339;-40
2023/07/02 05:11:50;;;;;;;;;22.33;19.00;;;;;-143.57;100.00;65101.44;5018173;28;45362;-42
2023/07/02 05:14:15;;;;;;;;;28.33;22.00;;;;;-143.57;100.00;65101.44;5018409;28;45434;-42
2023/07/02 05:16:41;;;;;;;;;22.67;16.33;;;;;-143.57;100.00;65101.44;5017333;28;46274;-41
2023/07/02 05:19:06;;;;;;;;;29.33;23.33;;;;;-143.57;100.00;65101.44;5018084;28;45490;-40
2023/07/02 05:21:31;;;;;;;;;28.00;19.67;;;;;-143.57;100.00;65101.44;5017893;28;45429;-46
2023/07/02 05:23:57;;;;;;;;;26.00;18.33;;;;;-143.57;100.00;65101.44;5018133;28;45371;-42
2023/07/02 05:26:22;;;;;;;;;27.00;20.00;;;;;-143.57;100.00;65101.44;5018006;28;47346;-41
2023/07/02 05:28:48;;;;;;;;;25.67;20.33;;;;;-143.57;100.00;65101.44;5017776;28;45364;-45
2023/07/02 05:31:13;;;;;;;;;34.67;23.67;;;;;-143.57;100.00;65101.44;5017818;28;45440;-45
2023/07/02 05:33:39;;;;;;;;;28.67;23.33;;;;;-143.57;100.00;65101.44;5018290;28;45411;-47
2023/07/02 05:36:04;;;;;;;;;28.67;22.33;;;;;-143.57;100.00;65101.44;5017834;28;46164;-46
2023/07/02 05:38:29;;;;;;;;;30.67;20.33;;;;;-143.57;100.00;65101.44;5017995;28;45375;-43
2023/07/02 05:40:55;;;;;;;;;23.33;21.33;;;;;-143.57;100.00;65101.44;5018006;28;45604;-47
2023/07/02 05:43:20;;;;;;;;;31.00;25.00;;;;;-143.57;100.00;65101.44;5017899;28;45481;-45
2023/07/02 05:45:46;;;;;;;;;30.33;18.33;;;;;-143.57;100.00;65101.44;5017694;28;46919;-42
2023/07/02 05:48:11;;;;;;;;;37.33;26.67;;;;;-143.57;100.00;65101.44;5017684;28;45431;-40
2023/07/02 05:50:37;;;;;;;;;28.67;19.67;;;;;-143.57;100.00;65101.44;5016986;28;45709;-41
2023/07/02 05:53:02;;;;;;;;;26.00;22.67;;;;;-143.57;100.00;65101.44;5017874;28;45386;-41
2023/07/02 05:55:27;;;;;;;;;34.33;28.67;;;;;-143.57;100.00;65101.44;5017391;28;47233;-41
2023/07/02 05:57:53;;;;;;;;;33.67;23.00;;;;;-143.57;100.00;65101.44;5017651;28;45447;-41
2023/07/02 06:00:18;;;;;;;;;27.33;20.00;;;;;-143.57;100.00;65101.44;5017424;28;45434;-43
2023/07/02 06:02:46;;;;;;;;;28.33;18.33;;;;;-143.57;100.00;65101.44;5017883;28;45327;-42
2023/07/02 06:05:12;;;;;;;;;24.67;18.67;;;;;-143.57;100.00;65101.44;5017069;28;45887;-42
2023/07/02 06:07:37;;;;;;;;;16.33;15.67;;;;;-143.57;100.00;65101.44;5017108;28;45323;-43
2023/07/02 06:10:02;;;;;;;;;30.67;23.00;;;;;-143.57;100.00;65101.44;5017682;28;45740;-49
2023/07/02 06:12:28;;;;;;;;;25.00;21.67;;;;;-143.57;100.00;65101.44;5017531;28;45471;-46
2023/07/02 06:14:53;;;;;;;;;29.67;22.33;;;;;-143.57;100.00;65101.44;5016968;28;45473;-48
2023/07/02 06:17:20;;;;;;;;;25.67;22.00;;;;;-143.57;100.00;65101.44;5017204;28;45443;-40
2023/07/02 06:19:46;;;;;;;;;32.50;22.00;;;;;-143.57;100.00;65101.44;5017232;28;45652;-43
2023/07/02 06:22:12;;;;;;;;;31.67;22.33;;;;;-143.57;100.00;65101.44;5017452;28;45339;-41
2023/07/02 06:24:37;;;;;;;;;25.67;21.00;;;;;-143.57;100.00;65101.44;5016965;28;45350;-41
2023/07/02 06:27:03;;;;;;;;;25.33;20.67;;;;;-143.57;100.00;65101.44;5017172;28;45406;-42
2023/07/02 06:29:28;;;;;;;;;26.33;22.00;;;;;-143.57;100.00;65101.44;5016895;28;45315;-41
2023/07/02 06:31:54;;;;;;;;;30.33;22.00;;;;;-143.57;100.00;65101.44;5017306;28;45438;-43
2023/07/02 06:34:19;;;;;;;;;22.00;16.00;;;;;-143.57;100.00;65101.44;5016062;28;46092;-44
2023/07/02 06:36:45;;;;;;;;;32.33;21.67;;;;;-143.57;100.00;65101.44;4999315;28;45420;-43
2023/07/02 06:39:10;;;;;;;;;28.00;23.67;;;;;-143.57;100.00;65101.44;5017149;28;45311;-44
2023/07/02 06:41:36;;;;;;;;;36.67;25.33;;;;;-143.57;100.00;65101.44;5017149;28;45385;-44
2023/07/02 06:44:02;;;;;;;;;26.67;20.00;;;;;-143.57;100.00;65101.44;5016646;28;46254;-41
2023/07/02 06:46:28;;;;;;;;;27.00;21.00;;;;;-143.57;100.00;65101.44;5015979;28;45495;-40
2023/07/02 06:48:54;;;;;;;;;24.00;20.00;;;;;-143.57;100.00;65101.44;5016652;28;45385;-41
2023/07/02 06:51:20;;;;;;;;;24.67;18.00;;;;;-143.57;100.00;65101.44;5016927;28;45435;-39
2023/07/02 06:53:46;;;;;;;;;24.67;18.00;;;;;-143.57;100.00;65101.44;5016514;28;47038;-42
2023/07/02 06:56:11;;;;;;;;;26.00;21.67;;;;;-143.57;100.00;65101.44;5016447;28;45244;-41
2023/07/02 06:58:36;;;;;;;;;19.00;14.67;;;;;-143.57;100.00;65101.44;5016578;28;45292;-40
2023/07/02 07:01:02;;;;;;;;;23.33;18.00;;;;;-143.57;100.00;65101.44;5016700;28;45572;-42
2023/07/02 07:03:28;;;;;;;;;20.67;18.33;;;;;-143.57;100.00;65101.44;4998375;28;46114;-50
2023/07/02 07:05:54;;;;;;;;;28.67;21.00;;;;;-143.57;100.00;65101.44;5016323;28;45550;-43
2023/07/02 07:08:19;;;;;;;;;28.00;22.67;;;;;-143.57;100.00;65101.44;5016382;28;45439;-41
2023/07/02 07:10:45;;;;;;;;;24.67;21.33;;;;;-143.57;100.00;65101.44;5016937;28;45421;-44
2023/07/02 07:13:11;;;;;;;;;30.33;22.00;;;;;-143.57;100.00;65101.44;5016224;28;47041;-42
2023/07/02 07:15:36;;;;;;;;;19.33;16.00;;;;;-143.57;100.00;65101.44;5015841;28;45430;-40
2023/07/02 07:18:02;;;;;;;;;26.00;17.75;;;;;-143.57;100.00;65101.44;5016540;28;45414;-40
2023/07/02 07:20:29;;;;;;;;;26.25;19.50;;;;;-143.57;100.00;65101.44;5016627;28;45352;-39
2023/07/02 07:22:54;;;;;;;;;25.75;21.00;;;;;-143.57;100.00;65101.44;5016121;28;47342;-41
2023/07/02 07:25:19;;;;;;;;;24.50;22.00;;;;;-143.57;100.00;65101.44;5016213;28;45180;-46
2023/07/02 07:27:45;;;;;;;;;24.75;19.50;;;;;-143.57;100.00;65101.44;5016380;28;45333;-43
2023/07/02 07:30:11;;;;;;;;;28.50;19.75;;;;;-143.57;100.00;65101.44;5015336;28;45235;-41
2023/07/02 07:32:36;;;;;;;;;28.00;18.00;;;;;-143.57;100.00;65101.44;5015916;28;46974;-45
2023/07/02 07:35:01;;;;;;;;;24.50;19.00;;;;;-143.57;100.00;65101.44;5016229;28;45351;-43
2023/07/02 07:37:27;;;;;;;;;30.75;24.00;;;;;-143.57;100.00;65101.44;5016320;28;45330;-41
2023/07/02 07:39:52;;;;;;;;;27.00;22.00;;;;;-143.57;100.00;65101.44;5016500;28;45445;-41
2023/07/02 07:42:17;;;;;;;;;26.75;20.50;;;;;-143.57;100.00;65101.44;5015757;28;46041;-42
2023/07/02 07:44:45;;;;;;;;;25.50;19.75;;;;;-143.57;100.00;65101.44;5016050;28;47602;-45
2023/07/02 07:47:11;;;;;;;;;25.50;22.50;;;;;-143.57;100.00;65101.44;5016358;28;45367;-41
2023/07/02 07:49:36;;;;;;;;;27.50;21.75;;;;;-143.57;100.00;65101.44;5015999;28;45400;-45
2023/07/02 07:52:03;;;;;;;;;21.75;20.00;;;;;-143.57;100.00;65101.44;5016193;28;45380;-44
2023/07/02 07:54:28;;;;;;;;;29.60;21.00;;;;;-143.57;100.00;65101.44;5015778;28;45405;-45
2023/07/02 07:56:54;;;;;;;;;25.50;22.00;;;;;-143.57;100.00;65101.44;5016128;28;45398;-47
2023/07/02 07:59:19;;;;;;;;;23.75;17.75;;;;;-143.57;100.00;65101.44;5016548;28;45455;-44
2023/07/02 08:01:46;;;;;;;;;23.25;20.75;;;;;-143.57;100.00;65101.44;5016412;28;51091;-45
2023/07/02 08:04:11;;;;;;;;;23.40;19.40;;;;;-143.57;100.00;65101.44;5017117;28;45319;-42
2023/07/02 08:06:37;;;;;;;;;35.75;28.25;;;;;-143.57;100.00;65101.44;5017337;28;45303;-43
2023/07/02 08:09:03;;;;;;;;;26.75;19.50;;;;;-143.57;100.00;65101.44;5016970;28;45531;-41
2023/07/02 08:11:28;;;;;;;;;30.00;22.25;;;;;-143.57;100.00;65101.44;5016475;28;45423;-48
2023/07/02 08:13:54;;;;;;;;;30.00;20.00;;;;;-143.57;100.00;65101.44;5016833;28;45244;-42
2023/07/02 08:16:19;;;;;;;;;25.75;20.00;;;;;-143.57;100.00;65101.44;5016372;28;45446;-42
2023/07/02 08:18:44;;;;;;;;;25.75;17.75;;;;;-143.57;100.00;65101.44;5015851;28;45534;-42
2023/07/02 08:21:11;;;;;;;;;23.00;19.00;;;;;-143.57;100.00;65101.44;5015839;28;46211;-42
2023/07/02 08:23:36;;;;;;;;;27.00;21.80;;;;;-143.57;100.00;65101.44;5015758;28;45298;-46
2023/07/02 08:26:02;;;;;;;;;23.00;18.75;;;;;-143.57;100.00;65101.44;5019129;28;45745;-51
2023/07/02 08:28:28;;;;;;;;;24.75;19.50;;;;;-143.57;100.00;65101.44;5019347;28;45407;-47
2023/07/02 08:30:53;;;;;;;;;18.25;12.50;;;;;-143.57;100.00;65101.44;5018301;28;46172;-47
2023/07/02 08:33:18;;;;;;;;;21.00;19.75;;;;;-143.57;100.00;65101.44;5015618;28;45367;-43
2023/07/02 08:35:44;;;;;;;;;26.50;20.50;;;;;-143.57;100.00;65101.44;5017845;28;45395;-42
2023/07/02 08:38:09;;;;;;;;;23.00;19.25;;;;;-143.57;100.00;65101.44;5018182;28;45408;-43
2023/07/02 08:40:35;;;;;;;;;22.75;18.25;;;;;-143.57;100.00;65101.44;5017990;28;47104;-45
2023/07/02 08:43:00;;;;;;;;;30.00;20.25;;;;;-143.57;100.00;65101.44;5017486;28;45298;-41
2023/07/02 08:45:26;;;;;;;;;29.75;19.50;;;;;-143.57;100.00;65101.44;5017808;28;45311;-44
2023/07/02 08:47:55;;;;;;;;;25.75;18.75;;;;;-143.57;100.00;65101.44;5017210;28;45364;-40
2023/07/02 08:50:20;;;;;;;;;27.50;22.50;;;;;-143.57;100.00;65101.44;5016892;28;47050;-48
2023/07/02 08:52:45;;;;;;;;;26.50;20.50;;;;;-143.57;100.00;65101.44;5016868;28;45397;-43
2023/07/02 08:55:11;;;;;;;;;25.25;20.00;;;;;-143.57;100.00;65101.44;5015754;28;45414;-46
2023/07/02 08:57:36;;;;;;;;;35.25;30.00;;;;;-143.57;100.00;65101.44;5018232;28;45482;-48
2023/07/02 09:00:10;;;;;;;;;29.25;21.00;;;;;-143.57;100.00;65101.44;5019230;28;46358;-44
2023/07/02 09:02:35;;;;;;;;;22.20;20.00;;;;;-143.57;100.00;65101.44;5018579;28;45884;-46
2023/07/02 09:05:04;;;;;;;;;21.75;16.25;;;;;-143.57;100.00;65101.44;5019189;28;45394;-46
2023/07/02 09:07:29;;;;;;;;;24.60;22.40;;;;;-143.57;100.00;65101.44;5019127;28;45252;-46
2023/07/02 09:09:55;;;;;;;;;24.00;19.00;;;;;-143.57;100.00;65101.44;5018723;28;45357;-44
2023/07/02 09:12:28;;;;;;;;;19.50;14.25;;;;;-143.57;100.00;65101.44;5018226;28;45430;-50
2023/07/02 09:14:58;;;;;;;;;19.80;16.60;;;;;-143.57;100.00;65101.44;5018191;28;45328;-44
2023/07/02 09:17:31;;;;;;;;;18.60;15.00;;;;;-143.57;100.00;65101.44;5018578;28;45469;-50
2023/07/02 09:19:58;;;;;;;;;15.80;14.80;;;;;-143.57;100.00;65101.44;5017939;28;45356;-51
2023/07/02 09:22:23;;;;;;;;;15.80;13.60;;;;;-143.57;100.00;65101.44;5018155;28;45486;-50
2023/07/02 09:24:54;;;;;;;;;14.75;12.00;;;;;-143.57;100.00;65101.44;5018217;28;45448;-47
2023/07/02 09:27:19;;;;;;;;;21.00;18.40;;;;;-143.57;100.00;65101.44;5018090;28;45244;-44
2023/07/02 09:29:52;;;;;;;;;19.50;15.75;;;;;-143.57;100.00;65101.44;5017978;28;46604;-45
2023/07/02 09:32:27;;;;;;;;;17.80;17.40;;;;;-143.57;100.00;65101.44;5018084;28;45382;-43
2023/07/02 09:34:55;;;;;;;;;10.80;9.80;;;;;-143.57;100.00;65101.44;5017967;28;45411;-42
2023/07/02 09:37:21;;;;;;;;;15.00;14.00;;;;;-143.57;100.00;65101.44;5018263;28;45449;-42
2023/07/02 09:39:51;;;;;;;;;19.75;14.50;;;;;-143.57;100.00;65101.44;5018057;28;46073;-45
2023/07/02 09:42:19;;;;;;;;;22.40;17.40;;;;;-143.57;100.00;65101.44;5018054;28;45871;-44
2023/07/02 09:44:45;;;;;;;;;18.00;17.20;;;;;-143.57;100.00;65101.44;5017926;28;45445;-43
2023/07/02 09:47:12;;;;;;;;;22.40;15.20;;;;;-143.57;100.00;65101.44;5017593;28;45327;-42
2023/07/02 09:49:40;;;;;;;;;18.20;15.40;;;;;-143.57;100.00;65101.44;5017693;28;46413;-46
2023/07/02 09:52:11;;;;;;;;;16.00;13.60;;;;;-143.57;100.00;65101.44;5017580;28;45745;-44
2023/07/02 09:54:37;;;;;;;;;21.20;14.40;;;;;-143.57;100.00;65101.44;5017465;28;45502;-42
2023/07/02 09:57:04;;;;;;;;;15.80;13.40;;;;;-143.57;100.00;65101.44;5017847;28;45394;-45
2023/07/02 09:59:30;;;;;;;;;15.40;14.20;;;;;-143.57;100.00;65101.44;5017313;28;46120;-44
2023/07/02 10:01:56;;;;;;;;;20.25;15.50;;;;;-143.57;100.00;65101.44;5017402;28;45378;-51
2023/07/02 10:04:25;;;;;;;;;17.60;14.00;;;;;-143.57;100.00;65101.44;5017387;28;45458;-43
2023/07/02 10:06:54;;;;;;;;;30.20;22.40;;;;;-143.57;100.00;65101.44;5017738;28;45450;-43
2023/07/02 10:09:33;;;;;;;;;22.00;21.20;;;;;-143.57;100.00;65101.44;5015539;28;45440;-43
2023/07/02 10:11:59;;;;;;;;;17.80;15.60;;;;;-143.57;100.00;65101.44;5017330;28;45382;-52
2023/07/02 10:14:24;;;;;;;;;16.75;15.00;;;;;-143.57;100.00;65101.44;5017467;28;45490;-57
2023/07/02 10:16:54;;;;;;;;;17.50;16.50;;;;;-143.57;100.00;65101.44;4999613;28;45527;-45
2023/07/02 10:19:21;;;;;;;;;15.60;13.60;;;;;-143.57;100.00;65101.44;5017230;28;46299;-49
2023/07/02 10:22:00;;;;;;;;;16.20;14.00;;;;;-143.57;100.00;65101.44;5017094;28;45516;-47
2023/07/02 10:24:26;;;;;;;;;17.80;13.60;;;;;-143.57;100.00;65101.44;5017108;28;45271;-48
2023/07/02 10:26:56;;;;;;;;;14.50;12.75;;;;;-143.57;100.00;65101.44;5017159;28;45465;-47
2023/07/02 10:29:26;;;;;;;;;17.20;12.80;;;;;-143.57;100.00;65101.44;4999076;28;47089;-47
2023/07/02 10:31:52;;;;;;;;;18.00;14.20;;;;;-143.57;100.00;65101.44;5016948;28;45347;-45
2023/07/02 10:34:34;;;;;;;;;17.40;15.60;;;;;-143.57;100.00;65101.44;5017199;28;45689;-44
2023/07/02 10:37:04;;;;;;;;;15.80;14.00;;;;;-143.57;100.00;65101.44;5017344;28;45302;-48
2023/07/02 10:39:30;;;;;;;;;17.80;15.20;;;;;-143.57;100.00;65101.44;5017044;28;45513;-45
2023/07/02 10:42:09;;;;;;;;;17.20;15.00;;;;;-143.57;100.00;65101.44;5016001;28;45319;-51
2023/07/02 10:44:54;;;;;;;;;16.20;12.60;;;;;-143.57;100.00;65101.44;5016933;28;45678;-48
2023/07/02 10:47:20;;;;;;;;;15.00;12.60;;;;;-143.57;100.00;65101.44;5016447;28;45538;-43
2023/07/02 10:49:45;;;;;;;;;17.25;13.50;;;;;-143.57;100.00;65101.44;5016685;28;46049;-45